Time;durP1;ratioP1;P1;durP2;ratioP2;P2;SDS_P1;SDS_P2;PMS_P1;PMS_P2;Temp;Humidity;BMP_temperature;BMP_pressure;BME280_temperature;BME280_humidity;BME280_pressure;Samples;Min_cycle;Max_cycle;Signal;HPM_P1;HPM_P2
2023/05/23 00:00:59;;;;;;;44.17;17.33;;;18.90;99.90;;;;;;4969566;28;20023;-72
2023/05/23 00:03:26;;;;;;;41.22;16.55;;;18.90;99.90;;;;;;4965562;28;20038;-73
2023/05/23 00:05:52;;;;;;;40.88;17.50;;;18.90;99.90;;;;;;4968644;28;20499;-72
2023/05/23 00:08:17;;;;;;;44.00;18.58;;;18.90;99.90;;;;;;4964648;28;20062;-73
2023/05/23 00:10:44;;;;;;;40.75;16.63;;;18.90;99.90;;;;;;4967069;28;20041;-72
2023/05/23 00:13:14;;;;;;;33.42;15.57;;;18.90;99.90;;;;;;4967308;28;20102;-72
2023/05/23 00:15:43;;;;;;;39.80;16.60;;;18.90;99.90;;;;;;4966821;28;20070;-73
2023/05/23 00:18:13;;;;;;;41.88;16.65;;;18.80;99.90;;;;;;4965967;28;20031;-73
2023/05/23 00:20:41;;;;;;;40.05;17.48;;;18.70;99.90;;;;;;4966291;28;20026;-72
2023/05/23 00:23:17;;;;;;;38.60;15.63;;;18.80;99.90;;;;;;4966175;28;20053;-73
2023/05/23 00:25:47;;;;;;;40.45;16.33;;;18.70;99.90;;;;;;4967201;28;20031;-72
2023/05/23 00:28:13;;;;;;;37.95;17.70;;;18.70;99.90;;;;;;4966611;28;20026;-73
2023/05/23 00:30:39;;;;;;;37.75;16.98;;;18.70;99.90;;;;;;4966260;28;20519;-73
2023/05/23 00:33:05;;;;;;;38.65;17.17;;;18.60;99.90;;;;;;4967071;28;20045;-73
2023/05/23 00:35:31;;;;;;;37.10;15.68;;;18.60;99.90;;;;;;4965875;28;20071;-73
2023/05/23 00:37:56;;;;;;;45.25;16.50;;;18.60;99.90;;;;;;4966742;28;20122;-73
2023/05/23 00:40:22;;;;;;;40.30;15.95;;;18.60;99.90;;;;;;4964023;28;20031;-72
2023/05/23 00:42:48;;;;;;;42.65;16.83;;;18.60;99.90;;;;;;4966738;28;20121;-73
2023/05/23 00:45:15;;;;;;;35.58;15.02;;;18.60;99.90;;;;;;4965716;28;20031;-72
2023/05/23 00:47:43;;;;;;;40.88;15.10;;;18.60;99.90;;;;;;4966630;28;20089;-73
2023/05/23 00:50:13;;;;;;;44.50;16.30;;;18.50;99.90;;;;;;4962541;28;20042;-72
2023/05/23 00:52:40;;;;;;;37.73;14.57;;;18.50;99.90;;;;;;4958420;28;20035;-73
2023/05/23 00:55:07;;;;;;;37.35;15.60;;;18.40;99.90;;;;;;4963980;28;20023;-72
2023/05/23 00:57:33;;;;;;;36.83;16.00;;;18.40;99.90;;;;;;4966428;28;20049;-73
2023/05/23 01:00:02;;;;;;;36.70;17.02;;;18.40;99.90;;;;;;4965321;28;20102;-72
2023/05/23 01:02:32;;;;;;;39.92;17.10;;;18.40;99.90;;;;;;4966637;28;20031;-72
2023/05/23 01:04:58;;;;;;;34.65;14.52;;;18.30;99.90;;;;;;4961402;28;20487;-73
2023/05/23 01:07:24;;;;;;;31.55;14.70;;;18.30;99.90;;;;;;4962824;28;20085;-73
2023/05/23 01:09:50;;;;;;;31.35;13.52;;;18.30;99.90;;;;;;4959706;28;20506;-73
2023/05/23 01:12:36;;;;;;;28.42;13.25;;;18.30;99.90;;;;;;4956043;28;20511;-73
2023/05/23 01:15:16;;;;;;;36.15;14.70;;;18.20;99.90;;;;;;4959054;28;20027;-72
2023/05/23 01:18:07;;;;;;;36.55;14.73;;;18.20;99.90;;;;;;4957294;28;20042;-72
2023/05/23 01:20:51;;;;;;;32.28;14.60;;;18.10;99.90;;;;;;4963486;28;20018;-72
2023/05/23 01:24:06;;;;;;;35.95;14.30;;;18.20;99.90;;;;;;4964181;28;20117;-72
2023/05/23 01:27:04;;;;;;;40.28;14.95;;;18.20;99.90;;;;;;4954203;28;20031;-72
2023/05/23 01:29:38;;;;;;;32.67;15.18;;;18.20;99.90;;;;;;4964037;28;20031;-73
2023/05/23 01:32:10;;;;;;;31.13;13.27;;;18.10;99.90;;;;;;4965556;28;20031;-73
2023/05/23 01:34:37;;;;;;;27.80;12.10;;;18.10;99.90;;;;;;4960160;28;20247;-73
2023/05/23 01:37:13;;;;;;;27.27;14.52;;;18.10;99.90;;;;;;4953193;28;20035;-72
2023/05/23 01:39:39;;;;;;;31.48;13.13;;;18.10;99.90;;;;;;4960631;28;20027;-73
2023/05/23 01:42:06;;;;;;;28.77;13.27;;;18.00;99.90;;;;;;4946282;29;20575;-73
2023/05/23 01:44:34;;;;;;;25.25;11.90;;;18.00;99.90;;;;;;4963096;28;20037;-73
2023/05/23 01:47:07;;;;;;;30.27;12.60;;;18.00;99.90;;;;;;4966184;28;20059;-72
2023/05/23 01:49:35;;;;;;;23.42;12.13;;;18.00;99.90;;;;;;4962797;28;20037;-72
2023/05/23 01:52:02;;;;;;;26.75;14.27;;;18.00;99.90;;;;;;4966648;28;20130;-73
2023/05/23 01:54:29;;;;;;;31.67;13.30;;;18.00;99.90;;;;;;4963131;28;20071;-73
2023/05/23 01:56:59;;;;;;;25.65;12.93;;;17.90;99.90;;;;;;4966478;28;20035;-72
2023/05/23 01:59:25;;;;;;;29.23;13.70;;;17.90;99.90;;;;;;4961183;28;20032;-73
2023/05/23 02:01:51;;;;;;;24.75;12.38;;;17.90;99.90;;;;;;4951151;28;20031;-73
2023/05/23 02:04:17;;;;;;;25.25;11.88;;;17.90;99.90;;;;;;4947452;28;20031;-72
2023/05/23 02:06:43;;;;;;;25.38;12.38;;;17.90;99.90;;;;;;4952780;28;20387;-73
2023/05/23 02:09:09;;;;;;;29.05;13.32;;;17.90;99.90;;;;;;4960370;28;20039;-72
2023/05/23 02:11:34;;;;;;;24.00;11.10;;;17.90;99.90;;;;;;4969727;28;20126;-72
2023/05/23 02:14:01;;;;;;;27.40;12.65;;;17.90;99.90;;;;;;4960383;28;20038;-72
2023/05/23 02:16:27;;;;;;;24.60;11.70;;;17.80;99.90;;;;;;4953108;28;20118;-72
2023/05/23 02:18:55;;;;;;;29.88;13.57;;;17.80;99.90;;;;;;4960066;28;20163;-72
2023/05/23 02:21:22;;;;;;;24.73;11.70;;;17.70;99.90;;;;;;4969638;28;20030;-73
2023/05/23 02:23:47;;;;;;;30.40;12.25;;;17.70;99.90;;;;;;4966677;28;20598;-72
2023/05/23 02:26:13;;;;;;;29.75;12.70;;;17.70;99.90;;;;;;4968972;28;20037;-72
2023/05/23 02:28:40;;;;;;;31.67;13.90;;;17.60;99.90;;;;;;4960219;28;20071;-73
2023/05/23 02:31:06;;;;;;;31.75;14.07;;;17.60;99.90;;;;;;4967983;28;20062;-73
2023/05/23 02:33:32;;;;;;;30.05;12.75;;;17.60;99.90;;;;;;4962233;28;20035;-72
2023/05/23 02:35:57;;;;;;;25.83;12.77;;;17.60;99.90;;;;;;4965383;28;20030;-73
2023/05/23 02:38:25;;;;;;;25.98;11.70;;;17.50;99.90;;;;;;4962899;28;20070;-73
2023/05/23 02:40:52;;;;;;;32.97;12.80;;;17.60;99.90;;;;;;4965721;28;20030;-73
2023/05/23 02:43:19;;;;;;;33.65;14.27;;;17.60;99.90;;;;;;4963536;28;20472;-73
2023/05/23 02:45:45;;;;;;;33.00;14.50;;;17.60;99.90;;;;;;4969146;28;20038;-73
2023/05/23 02:48:13;;;;;;;27.25;12.68;;;17.60;99.90;;;;;;4968560;28;20043;-72
2023/05/23 02:50:39;;;;;;;31.67;15.05;;;17.50;99.90;;;;;;4967863;28;20035;-73
2023/05/23 02:53:05;;;;;;;34.42;13.52;;;17.50;99.90;;;;;;4968836;28;20133;-73
2023/05/23 02:55:30;;;;;;;28.23;13.57;;;17.50;99.90;;;;;;4967561;28;20529;-73
2023/05/23 02:58:00;;;;;;;36.10;15.02;;;17.50;99.90;;;;;;4968462;28;20482;-73
2023/05/23 03:00:26;;;;;;;34.58;13.38;;;17.50;99.90;;;;;;4982043;28;20037;-73
2023/05/23 03:02:52;;;;;;;28.10;13.88;;;17.50;99.90;;;;;;4965239;28;20031;-73
2023/05/23 03:05:18;;;;;;;31.40;13.73;;;17.60;99.90;;;;;;4965535;28;20082;-73
2023/05/23 03:07:43;;;;;;;29.17;13.45;;;17.60;99.90;;;;;;4964933;28;20041;-73
2023/05/23 03:10:09;;;;;;;27.58;13.77;;;17.60;99.90;;;;;;4966974;28;20022;-73
2023/05/23 03:12:35;;;;;;;32.97;13.75;;;17.60;99.90;;;;;;4960789;28;20037;-73
2023/05/23 03:15:01;;;;;;;33.85;14.68;;;17.60;99.90;;;;;;4960220;28;20027;-73
2023/05/23 03:17:27;;;;;;;26.67;12.75;;;17.60;99.90;;;;;;4958261;28;20118;-73
2023/05/23 03:19:53;;;;;;;31.38;13.93;;;17.50;99.90;;;;;;4963071;28;20118;-73
2023/05/23 03:22:19;;;;;;;37.00;13.77;;;17.60;99.90;;;;;;4957339;28;20392;-73
2023/05/23 03:24:44;;;;;;;28.25;13.73;;;17.50;99.90;;;;;;4967054;28;20038;-73
2023/05/23 03:27:10;;;;;;;28.48;13.38;;;17.50;99.90;;;;;;4969915;28;20032;-73
2023/05/23 03:29:36;;;;;;;25.63;13.15;;;17.50;99.90;;;;;;4966150;28;20371;-73
2023/05/23 03:32:02;;;;;;;28.33;14.02;;;17.50;99.90;;;;;;4967249;28;20071;-73
2023/05/23 03:34:27;;;;;;;26.42;12.27;;;17.40;99.90;;;;;;4963175;28;20153;-72
2023/05/23 03:36:53;;;;;;;27.77;12.95;;;17.40;99.90;;;;;;4965861;28;20050;-73
2023/05/23 03:39:19;;;;;;;24.80;12.82;;;17.30;99.90;;;;;;4975993;28;20394;-75
2023/05/23 03:41:45;;;;;;;29.95;14.70;;;17.30;99.90;;;;;;4986346;28;20035;-75
2023/05/23 03:44:10;;;;;;;29.38;13.65;;;17.20;99.90;;;;;;4964714;28;20109;-75
2023/05/23 03:46:36;;;;;;;26.23;11.88;;;17.20;99.90;;;;;;4959453;28;20027;-75
2023/05/23 03:49:02;;;;;;;26.77;13.68;;;17.20;99.90;;;;;;4965429;28;20510;-75
2023/05/23 03:51:28;;;;;;;25.75;13.38;;;17.10;99.90;;;;;;4971971;28;20038;-76
2023/05/23 03:53:54;;;;;;;26.75;12.73;;;17.10;99.90;;;;;;4962172;28;20034;-75
2023/05/23 03:56:20;;;;;;;27.05;13.00;;;17.10;99.90;;;;;;4961887;28;20034;-75
2023/05/23 03:58:45;;;;;;;25.35;11.52;;;17.00;99.90;;;;;;4965317;28;20503;-75
2023/05/23 04:01:12;;;;;;;28.92;13.35;;;17.00;99.90;;;;;;4970639;28;20034;-74
2023/05/23 04:03:37;;;;;;;25.60;11.55;;;17.00;99.90;;;;;;4963029;28;20070;-75
2023/05/23 04:06:04;;;;;;;28.30;12.18;;;16.90;99.90;;;;;;4969409;28;20030;-74
2023/05/23 04:08:32;;;;;;;23.33;10.82;;;16.90;99.90;;;;;;4965025;28;20069;-77
2023/05/23 04:11:00;;;;;;;20.52;11.52;;;16.90;99.90;;;;;;4958086;28;20042;-76
2023/05/23 04:13:27;;;;;;;21.35;11.52;;;16.90;99.90;;;;;;4961895;28;20034;-74
2023/05/23 04:15:55;;;;;;;24.13;11.95;;;16.90;99.90;;;;;;4955799;28;20122;-73
2023/05/23 04:18:22;;;;;;;22.15;11.23;;;16.90;99.90;;;;;;4962681;28;20023;-75
2023/05/23 04:20:48;;;;;;;27.40;10.85;;;16.90;99.90;;;;;;4968163;28;20553;-73
2023/05/23 04:23:13;;;;;;;23.45;11.50;;;17.00;99.90;;;;;;4941180;28;20038;-73
2023/05/23 04:25:39;;;;;;;23.70;11.27;;;16.90;99.90;;;;;;4979706;28;20436;-74
2023/05/23 04:28:05;;;;;;;23.10;11.20;;;16.90;99.90;;;;;;4959963;28;20035;-74
2023/05/23 04:30:32;;;;;;;20.90;10.57;;;17.00;99.90;;;;;;4978140;28;20058;-74
2023/05/23 04:32:58;;;;;;;20.05;9.95;;;17.00;99.90;;;;;;4960517;28;20034;-74
2023/05/23 04:35:27;;;;;;;20.30;10.65;;;16.90;99.90;;;;;;4965894;28;20034;-74
2023/05/23 04:37:56;;;;;;;21.35;11.48;;;17.00;99.90;;;;;;4962651;28;20046;-71
2023/05/23 04:40:23;;;;;;;18.70;9.48;;;16.90;99.90;;;;;;4964588;28;20176;-75
2023/05/23 04:42:50;;;;;;;17.52;9.50;;;16.90;99.90;;;;;;4965096;28;20065;-76
2023/05/23 04:45:18;;;;;;;23.60;10.20;;;16.90;99.90;;;;;;4963911;28;20889;-76
2023/05/23 04:47:47;;;;;;;17.88;9.93;;;16.90;99.90;;;;;;4965059;28;20062;-74
2023/05/23 04:50:17;;;;;;;23.40;10.30;;;16.90;99.90;;;;;;4963753;28;20042;-75
2023/05/23 04:52:43;;;;;;;19.20;9.52;;;16.80;99.90;;;;;;4957929;28;20498;-76
2023/05/23 04:55:09;;;;;;;20.05;10.35;;;16.80;99.90;;;;;;4965082;28;20031;-74
2023/05/23 04:57:35;;;;;;;21.48;10.30;;;16.90;99.90;;;;;;4965624;28;20084;-73
2023/05/23 05:00:00;;;;;;;23.35;10.20;;;16.90;99.90;;;;;;4964447;28;20076;-74
2023/05/23 05:02:26;;;;;;;21.30;10.50;;;16.90;99.90;;;;;;4964612;28;20180;-75
2023/05/23 05:04:52;;;;;;;16.77;9.10;;;16.90;99.90;;;;;;4964690;28;20019;-72
2023/05/23 05:07:18;;;;;;;20.33;10.88;;;16.90;99.90;;;;;;4962250;28;20031;-74
2023/05/23 05:09:44;;;;;;;27.42;10.13;;;16.90;99.90;;;;;;4964652;28;20027;-73
2023/05/23 05:12:10;;;;;;;16.45;7.47;;;16.90;99.90;;;;;;4955184;28;20039;-73
2023/05/23 05:14:36;;;;;;;22.40;7.88;;;16.90;99.90;;;;;;4963284;28;20035;-72
2023/05/23 05:17:02;;;;;;;16.88;8.23;;;16.90;99.90;;;;;;4966982;28;20114;-63
2023/05/23 05:19:28;;;;;;;16.10;7.50;;;17.40;99.90;;;;;;4963217;28;20035;-71
2023/05/23 05:21:54;;;;;;;18.10;8.38;;;17.90;99.90;;;;;;4967736;28;20027;-71
2023/05/23 05:24:21;;;;;;;12.32;6.95;;;17.70;99.90;;;;;;4962269;28;20117;-70
2023/05/23 05:26:47;;;;;;;13.98;7.82;;;17.50;99.90;;;;;;4968477;28;20027;-70
2023/05/23 05:29:14;;;;;;;18.50;7.25;;;17.30;99.90;;;;;;4961028;28;20035;-70
2023/05/23 05:31:39;;;;;;;13.75;7.85;;;17.20;99.90;;;;;;4969349;28;20043;-71
2023/05/23 05:34:05;;;;;;;15.73;7.43;;;17.10;99.90;;;;;;4960823;28;20035;-70
2023/05/23 05:36:31;;;;;;;13.15;7.57;;;17.10;99.90;;;;;;4969963;28;20535;-71
2023/05/23 05:38:57;;;;;;;14.07;7.10;;;17.10;99.90;;;;;;4961872;28;20031;-71
2023/05/23 05:41:22;;;;;;;13.95;7.00;;;17.10;99.90;;;;;;4968563;28;20027;-73
2023/05/23 05:43:48;;;;;;;13.75;7.75;;;17.10;99.90;;;;;;4960597;28;20035;-71
2023/05/23 05:46:14;;;;;;;19.50;8.57;;;17.20;99.90;;;;;;4967858;28;20117;-71
2023/05/23 05:48:40;;;;;;;15.82;6.95;;;17.20;99.90;;;;;;4960128;28;20058;-71
2023/05/23 05:51:05;;;;;;;14.00;7.15;;;17.30;99.90;;;;;;4969260;28;20121;-71
2023/05/23 05:53:31;;;;;;;13.05;5.85;;;17.40;99.90;;;;;;4962268;28;20050;-71
2023/05/23 05:55:57;;;;;;;17.25;6.45;;;17.40;99.90;;;;;;4966868;28;20031;-72
2023/05/23 05:58:22;;;;;;;11.13;6.38;;;17.50;99.90;;;;;;4963138;28;20054;-71
2023/05/23 06:00:48;;;;;;;13.75;6.40;;;17.60;99.90;;;;;;4964189;28;20089;-71
2023/05/23 06:03:14;;;;;;;11.75;6.25;;;17.60;99.90;;;;;;4964746;28;20042;-71
2023/05/23 06:05:40;;;;;;;16.92;7.68;;;17.50;99.90;;;;;;4964534;28;20034;-71
2023/05/23 06:08:07;;;;;;;14.60;7.40;;;17.60;99.90;;;;;;4964714;28;20038;-71
2023/05/23 06:10:33;;;;;;;13.35;6.28;;;17.60;99.90;;;;;;4959030;28;20031;-71
2023/05/23 06:12:59;;;;;;;10.07;5.85;;;17.60;99.90;;;;;;4959084;28;20034;-71
2023/05/23 06:15:25;;;;;;;10.63;5.25;;;17.60;99.90;;;;;;4962816;28;20497;-71
2023/05/23 06:17:51;;;;;;;10.18;5.88;;;17.50;99.90;;;;;;4964802;28;20058;-71
2023/05/23 06:20:17;;;;;;;9.60;5.38;;;17.50;99.90;;;;;;4962299;28;20057;-71
2023/05/23 06:22:42;;;;;;;8.55;5.03;;;17.50;99.90;;;;;;4964911;28;20046;-71
2023/05/23 06:25:08;;;;;;;14.07;6.43;;;17.60;99.90;;;;;;4962575;28;20399;-71
2023/05/23 06:27:34;;;;;;;11.55;6.35;;;17.60;99.90;;;;;;4963541;28;20070;-71
2023/05/23 06:30:00;;;;;;;11.60;5.88;;;17.70;99.90;;;;;;4963233;28;20042;-71
2023/05/23 06:32:25;;;;;;;7.63;4.55;;;17.80;99.90;;;;;;4963149;28;20042;-72
2023/05/23 06:34:51;;;;;;;13.40;4.70;;;17.80;99.90;;;;;;4963328;28;20049;-71
2023/05/23 06:37:17;;;;;;;11.15;4.55;;;17.80;99.90;;;;;;4964032;28;20050;-71
2023/05/23 06:39:43;;;;;;;8.25;4.53;;;17.90;99.90;;;;;;4964770;28;20510;-71
2023/05/23 06:42:12;;;;;;;8.65;4.85;;;17.90;99.90;;;;;;4961380;28;20034;-72
2023/05/23 06:44:38;;;;;;;7.80;3.83;;;18.00;99.90;;;;;;4958542;28;20661;-72
2023/05/23 06:47:04;;;;;;;9.20;4.38;;;18.10;99.90;;;;;;4965567;28;20039;-71
2023/05/23 06:49:30;;;;;;;6.50;3.42;;;18.20;99.90;;;;;;4982574;28;20034;-71
2023/05/23 06:51:57;;;;;;;7.63;2.97;;;18.30;99.90;;;;;;4956566;28;20035;-74
2023/05/23 06:54:23;;;;;;;6.65;3.40;;;18.20;99.90;;;;;;4963406;28;20027;-71
2023/05/23 06:56:49;;;;;;;6.82;2.88;;;18.20;99.90;;;;;;4965772;28;20046;-71
2023/05/23 06:59:14;;;;;;;7.82;3.45;;;18.20;99.90;;;;;;4966346;28;20509;-71
2023/05/23 07:01:40;;;;;;;6.97;2.63;;;18.10;99.90;;;;;;4951199;28;20474;-71
2023/05/23 07:04:06;;;;;;;5.70;2.90;;;18.20;99.90;;;;;;4982304;28;20054;-72
2023/05/23 07:06:35;;;;;;;9.77;2.92;;;18.20;99.90;;;;;;4955684;28;20038;-72
2023/05/23 07:09:00;;;;;;;6.93;3.30;;;18.10;99.90;;;;;;4959687;28;20396;-72
2023/05/23 07:11:26;;;;;;;7.03;2.45;;;18.10;99.90;;;;;;4958337;28;20039;-72
2023/05/23 07:13:52;;;;;;;6.20;3.20;;;18.20;99.90;;;;;;4980265;28;20491;-72
2023/05/23 07:16:18;;;;;;;5.15;2.67;;;18.30;99.90;;;;;;4953046;28;20027;-72
2023/05/23 07:18:43;;;;;;;5.50;2.80;;;18.20;99.90;;;;;;4960091;28;20106;-71
2023/05/23 07:21:09;;;;;;;5.95;2.60;;;18.10;99.90;;;;;;4967785;28;20589;-73
2023/05/23 07:23:35;;;;;;;5.68;2.83;;;18.10;99.90;;;;;;4960743;28;20023;-72
2023/05/23 07:26:01;;;;;;;5.20;3.03;;;18.20;99.90;;;;;;4966489;28;20078;-71
2023/05/23 07:28:27;;;;;;;7.57;3.30;;;18.20;99.90;;;;;;4961765;28;20423;-72
2023/05/23 07:30:53;;;;;;;7.05;3.20;;;18.30;99.90;;;;;;4950264;28;20031;-72
2023/05/23 07:33:19;;;;;;;7.00;3.85;;;18.30;99.90;;;;;;4966523;28;20046;-72
2023/05/23 07:35:45;;;;;;;5.25;2.95;;;18.30;99.90;;;;;;4967908;28;20043;-72
2023/05/23 07:38:11;;;;;;;10.48;3.03;;;18.40;99.90;;;;;;4966904;28;20039;-72
2023/05/23 07:40:39;;;;;;;7.53;3.40;;;18.40;99.90;;;;;;4959329;28;20078;-72
2023/05/23 07:43:05;;;;;;;7.47;3.72;;;18.40;99.90;;;;;;4963395;28;20062;-72
2023/05/23 07:45:30;;;;;;;6.05;3.58;;;18.50;99.90;;;;;;4966531;28;20058;-72
2023/05/23 07:47:56;;;;;;;4.30;2.95;;;18.70;99.90;;;;;;4966079;28;20073;-73
2023/05/23 07:50:22;;;;;;;5.15;3.20;;;18.80;99.90;;;;;;4960099;28;20035;-72
2023/05/23 07:52:50;;;;;;;6.72;3.40;;;19.00;99.90;;;;;;4960384;28;20049;-72
2023/05/23 07:55:15;;;;;;;6.82;3.22;;;19.00;99.90;;;;;;4973213;28;20027;-72
2023/05/23 07:57:41;;;;;;;5.18;3.45;;;18.90;99.90;;;;;;4966919;28;20450;-72
2023/05/23 08:00:08;;;;;;;10.60;3.10;;;18.90;99.90;;;;;;4966117;28;20109;-72
2023/05/23 08:02:35;;;;;;;4.20;2.90;;;18.80;99.90;;;;;;4967349;28;20402;-72
2023/05/23 08:05:01;;;;;;;4.78;2.83;;;18.80;99.90;;;;;;4965901;28;20023;-72
2023/05/23 08:07:27;;;;;;;4.82;3.17;;;18.70;99.90;;;;;;4965984;28;20043;-73
2023/05/23 08:09:53;;;;;;;5.85;2.72;;;18.70;99.90;;;;;;4972314;28;20054;-72
2023/05/23 08:12:18;;;;;;;5.18;2.83;;;18.80;99.90;;;;;;4956433;28;20051;-72
2023/05/23 08:14:44;;;;;;;6.18;2.97;;;18.90;99.90;;;;;;4965880;28;20364;-72
2023/05/23 08:17:11;;;;;;;5.78;2.60;;;18.80;99.90;;;;;;4966092;28;20766;-72
2023/05/23 08:19:37;;;;;;;7.93;2.75;;;18.60;99.90;;;;;;4962124;28;20062;-72
2023/05/23 08:22:04;;;;;;;3.70;2.13;;;18.60;99.90;;;;;;4954901;28;20059;-73
2023/05/23 08:24:30;;;;;;;5.47;3.22;;;18.60;99.90;;;;;;4965082;28;20042;-72
2023/05/23 08:26:56;;;;;;;5.88;2.92;;;18.70;99.90;;;;;;4968508;28;20031;-72
2023/05/23 08:29:22;;;;;;;6.00;3.00;;;18.80;99.90;;;;;;4963546;28;20062;-72
2023/05/23 08:31:47;;;;;;;4.78;2.58;;;19.00;99.90;;;;;;4970032;28;20114;-72
2023/05/23 08:34:13;;;;;;;5.85;2.38;;;19.00;99.90;;;;;;4962835;28;20062;-72
2023/05/23 08:36:41;;;;;;;4.47;2.50;;;18.90;99.90;;;;;;4970973;28;20047;-71
2023/05/23 08:39:07;;;;;;;5.47;2.03;;;18.80;99.90;;;;;;4961687;28;20031;-73
2023/05/23 08:41:33;;;;;;;4.00;2.55;;;18.70;99.90;;;;;;4970126;28;20030;-73
2023/05/23 08:44:00;;;;;;;4.95;2.65;;;18.70;99.90;;;;;;4962078;28;20035;-74
2023/05/23 08:46:26;;;;;;;3.65;2.08;;;18.70;99.90;;;;;;4969754;28;20027;-74
2023/05/23 08:48:57;;;;;;;4.15;2.05;;;18.80;99.90;;;;;;4960561;28;20043;-73
2023/05/23 08:51:27;;;;;;;4.22;2.35;;;18.70;99.90;;;;;;4974529;28;20035;-73
2023/05/23 08:53:55;;;;;;;3.88;1.77;;;18.90;99.90;;;;;;4967548;28;20101;-73
2023/05/23 08:56:24;;;;;;;3.50;2.08;;;19.00;99.90;;;;;;4959312;28;20502;-73
2023/05/23 08:58:52;;;;;;;3.50;2.05;;;19.10;99.90;;;;;;4981441;28;20066;-73
2023/05/23 09:01:19;;;;;;;4.00;2.40;;;19.20;99.90;;;;;;4956229;28;20090;-74
2023/05/23 09:03:45;;;;;;;3.22;2.17;;;19.30;99.90;;;;;;4965529;28;20030;-73
2023/05/23 09:06:11;;;;;;;3.50;1.90;;;19.30;99.90;;;;;;4957095;28;20101;-73
2023/05/23 09:08:37;;;;;;;3.22;2.15;;;19.30;99.90;;;;;;4961371;28;20495;-73
2023/05/23 09:11:05;;;;;;;3.13;1.90;;;19.20;99.90;;;;;;4979337;23;20109;-73
2023/05/23 09:13:32;;;;;;;5.43;2.35;;;19.40;99.90;;;;;;4974463;28;20045;-75
2023/05/23 09:15:58;;;;;;;3.45;2.05;;;19.70;99.90;;;;;;4984114;28;20407;-72
2023/05/23 09:18:26;;;;;;;3.97;2.10;;;20.00;99.90;;;;;;4985824;28;20081;-73
2023/05/23 09:20:52;;;;;;;3.90;1.80;;;20.40;99.90;;;;;;4968091;28;20031;-76
2023/05/23 09:23:18;;;;;;;5.15;1.67;;;20.50;99.90;;;;;;4972049;28;20031;-73
2023/05/23 09:25:48;;;;;;;3.10;1.70;;;20.30;99.90;;;;;;4983787;28;20026;-74
2023/05/23 09:28:14;;;;;;;4.65;2.33;;;20.50;99.90;;;;;;4991234;28;20041;-75
2023/05/23 09:30:39;;;;;;;5.55;1.83;;;20.60;99.90;;;;;;4986369;28;20040;-76
2023/05/23 09:33:05;;;;;;;2.88;1.67;;;20.60;99.90;;;;;;4979211;28;20462;-77
2023/05/23 09:35:31;;;;;;;4.22;2.10;;;20.60;99.90;;;;;;4974440;28;20031;-74
2023/05/23 09:38:00;;;;;;;3.97;1.98;;;20.40;99.90;;;;;;4983788;28;20031;-76
2023/05/23 09:40:31;;;;;;;2.47;1.63;;;20.30;99.90;;;;;;4970847;28;20086;-74
2023/05/23 09:43:03;;;;;;;4.70;1.98;;;20.30;99.90;;;;;;4982760;28;20098;-75
2023/05/23 09:45:33;;;;;;;3.80;2.33;;;20.20;99.90;;;;;;4972107;28;20085;-77
2023/05/23 09:47:58;;;;;;;3.40;1.80;;;20.10;99.90;;;;;;4982647;28;20097;-78
2023/05/23 09:50:33;;;;;;;3.22;1.70;;;20.30;99.90;;;;;;4986769;28;20026;-74
2023/05/23 09:53:00;;;;;;;3.00;1.73;;;20.30;99.90;;;;;;4968222;28;20067;-75
2023/05/23 09:55:26;;;;;;;3.03;1.48;;;20.50;99.90;;;;;;4977873;28;20640;-75
2023/05/23 09:57:56;;;;;;;3.50;1.70;;;20.60;99.90;;;;;;4979535;28;20070;-75
2023/05/23 10:00:24;;;;;;;3.17;1.65;;;20.70;99.90;;;;;;4977590;28;20048;-76
2023/05/23 10:03:11;;;;;;;2.30;1.40;;;20.80;99.90;;;;;;4962000;28;20070;-76
2023/05/23 10:05:48;;;;;;;3.63;1.42;;;20.80;99.90;;;;;;4972207;28;20027;-76
2023/05/23 10:08:56;;;;;;;4.78;2.05;;;20.90;99.90;;;;;;4977640;28;20053;-76
2023/05/23 10:12:12;;;;;;;4.78;1.50;;;20.70;99.90;;;;;;4900186;29;20548;-76
2023/05/23 10:14:44;;;;;;;4.72;1.83;;;20.50;99.90;;;;;;4972253;28;20035;-76
2023/05/23 10:17:25;;;;;;;4.20;1.38;;;20.30;99.90;;;;;;4968863;28;20546;-76
2023/05/23 10:20:03;;;;;;;3.25;1.70;;;20.00;99.90;;;;;;4972342;28;20045;-75
2023/05/23 10:22:30;;;;;;;3.88;1.60;;;19.70;99.90;;;;;;4972056;28;20024;-75
2023/05/23 10:24:55;;;;;;;3.00;1.58;;;19.70;99.90;;;;;;4982805;28;20033;-76
2023/05/23 10:27:22;;;;;;;4.32;1.67;;;19.60;99.90;;;;;;4985109;28;20027;-75
2023/05/23 10:29:48;;;;;;;4.10;2.22;;;19.60;99.90;;;;;;4981227;28;20387;-75
2023/05/23 10:32:15;;;;;;;3.83;1.73;;;19.70;99.90;;;;;;4986693;28;20050;-75
2023/05/23 10:35:03;;;;;;;2.60;1.77;;;19.50;99.90;;;;;;4981365;28;20106;-75
2023/05/23 10:37:56;;;;;;;2.95;1.60;;;19.60;99.90;;;;;;4977892;28;20242;-76
2023/05/23 10:40:45;;;;;;;3.88;2.13;;;19.80;99.90;;;;;;4981426;28;20065;-76
2023/05/23 10:43:20;;;;;;;4.25;1.55;;;19.90;99.90;;;;;;4986575;28;20038;-75
2023/05/23 10:45:49;;;;;;;3.67;1.95;;;20.00;99.90;;;;;;4982912;28;20414;-76
2023/05/23 10:48:30;;;;;;;4.15;2.45;;;20.20;99.90;;;;;;4985949;28;20035;-75
2023/05/23 10:51:06;;;;;;;;;;;20.60;99.90;;;;;;4985747;28;20038;-75
2023/05/23 10:53:37;;;;;;;3.88;2.15;;;20.80;99.90;;;;;;4983522;28;19918;-77
2023/05/23 10:56:22;;;;;;;5.07;1.98;;;20.80;99.90;;;;;;4985600;28;20395;-76
2023/05/23 10:58:55;;;;;;;3.55;2.00;;;20.90;99.90;;;;;;4979386;28;20062;-76
2023/05/23 11:01:21;;;;;;;2.13;1.45;;;20.80;99.90;;;;;;4978930;28;20434;-76
2023/05/23 11:03:46;;;;;;;2.80;1.40;;;20.60;99.90;;;;;;4984390;28;20034;-76
2023/05/23 11:06:44;;;;;;;2.83;1.27;;;20.40;99.90;;;;;;4985394;28;20043;-76
2023/05/23 11:09:12;;;;;;;3.72;1.80;;;20.30;99.90;;;;;;4977047;28;20471;-75
2023/05/23 11:11:56;;;;;;;4.88;1.45;;;20.10;99.90;;;;;;4979245;28;20031;-75
2023/05/23 11:14:31;;;;;;;4.03;1.77;;;20.10;99.90;;;;;;4992968;28;20213;-76
2023/05/23 11:16:59;;;;;;;4.53;1.98;;;19.90;99.90;;;;;;4975149;28;20118;-76
2023/05/23 11:19:27;;;;;;;4.00;1.80;;;19.90;99.90;;;;;;4982933;28;20174;-76
2023/05/23 11:22:00;;;;;;;3.35;2.05;;;20.00;99.90;;;;;;4980253;28;20050;-76
2023/05/23 11:24:53;;;;;;;3.95;2.00;;;20.00;99.90;;;;;;4993349;28;20038;-76
2023/05/23 11:27:34;;;;;;;3.20;1.63;;;20.10;99.90;;;;;;4980742;28;20067;-76
2023/05/23 11:30:12;;;;;;;3.58;2.05;;;20.20;99.90;;;;;;4990485;28;20084;-75
2023/05/23 11:32:39;;;;;;;3.40;1.85;;;20.20;99.90;;;;;;4975314;28;20027;-75
2023/05/23 11:35:08;;;;;;;3.95;2.05;;;20.20;99.90;;;;;;4971481;28;20483;-76
2023/05/23 11:37:34;;;;;;;5.15;1.67;;;20.30;99.90;;;;;;4986766;28;20042;-75
2023/05/23 11:40:29;;;;;;;3.58;1.85;;;20.50;99.90;;;;;;4962676;28;20074;-74
2023/05/23 11:42:55;;;;;;;4.55;1.75;;;20.90;99.90;;;;;;4975727;28;20037;-74
2023/05/23 11:45:22;;;;;;;3.22;1.92;;;21.50;99.90;;;;;;4969822;28;20081;-74
2023/05/23 11:47:48;;;;;;;3.10;1.98;;;21.70;99.90;;;;;;4985617;28;20022;-76
2023/05/23 11:50:19;;;;;;;4.07;2.00;;;22.10;99.90;;;;;;4989849;28;20031;-83
2023/05/23 11:52:50;;;;;;;4.18;1.83;;;22.10;99.90;;;;;;4986561;28;20034;-81
2023/05/23 11:55:21;;;;;;;4.72;2.50;;;21.60;99.90;;;;;;4986632;28;20034;-78
2023/05/23 11:57:47;;;;;;;4.75;2.40;;;21.10;99.90;;;;;;4985398;28;20034;-79
2023/05/23 12:00:14;;;;;;;6.05;3.08;;;20.70;99.90;;;;;;4985745;28;20066;-78
2023/05/23 12:02:42;;;;;;;4.28;2.67;;;20.40;99.90;;;;;;4986132;28;20018;-79
2023/05/23 12:05:12;;;;;;;5.53;2.92;;;20.30;99.90;;;;;;4969083;28;20031;-78
2023/05/23 12:07:47;;;;;;;9.63;3.15;;;20.30;99.90;;;;;;4975053;28;20069;-78
2023/05/23 12:10:17;;;;;;;9.77;3.67;;;20.30;99.90;;;;;;4971469;28;20130;-76
2023/05/23 12:12:43;;;;;;;7.38;2.92;;;20.20;99.90;;;;;;4985690;28;20038;-78
2023/05/23 12:15:11;;;;;;;8.80;3.42;;;20.30;99.90;;;;;;4986136;28;20464;-78
2023/05/23 12:17:38;;;;;;;5.13;3.03;;;20.50;99.90;;;;;;4972624;28;20081;-78
2023/05/23 12:20:06;;;;;;;4.43;2.58;;;20.70;99.90;;;;;;4969968;28;20861;-78
2023/05/23 12:22:32;;;;;;;6.28;2.97;;;20.90;99.90;;;;;;4983526;28;20022;-79
2023/05/23 12:24:57;;;;;;;6.13;3.20;;;21.00;99.90;;;;;;4989049;28;20037;-79
2023/05/23 12:27:29;;;;;;;5.72;2.88;;;21.30;99.90;;;;;;4981945;28;20027;-79
2023/05/23 12:30:15;;;;;;;5.50;2.72;;;21.50;99.90;;;;;;4989541;28;20033;-78
2023/05/23 12:32:43;;;;;;;8.23;3.35;;;21.50;99.90;;;;;;4974601;28;20085;-79
2023/05/23 12:35:12;;;;;;;4.25;2.38;;;21.70;99.90;;;;;;4970178;28;20073;-79
2023/05/23 12:37:47;;;;;;;6.80;3.75;;;21.90;99.90;;;;;;4975850;28;20022;-78
2023/05/23 12:40:17;;;;;;;6.47;2.67;;;22.10;99.90;;;;;;4968831;28;20062;-78
2023/05/23 12:42:53;;;;;;;5.60;2.70;;;22.20;99.90;;;;;;4984718;28;20062;-78
2023/05/23 12:45:23;;;;;;;4.65;2.58;;;22.20;99.90;;;;;;4985255;28;20115;-78